sensor_id;sensor_type;location;lat;lon;timestamp;pressure;altitude;pressure_sealevel;temperature;humidity
8360;BME280;4217;48.762;11.428;2022-09-09T00:04:54;97289.59;;;17.90;75.38
8360;BME280;4217;48.762;11.428;2022-09-09T00:15:07;97270.28;;;17.85;74.95
8360;BME280;4217;48.762;11.428;2022-09-09T00:35:57;97251.91;;;17.70;74.36
8360;BME280;4217;48.762;11.428;2022-09-09T00:56:18;97264.72;;;17.68;74.62
8360;BME280;4217;48.762;11.428;2022-09-09T01:06:36;97266.84;;;17.66;74.35
8360;BME280;4217;48.762;11.428;2022-09-09T01:16:40;97275.97;;;17.60;74.66
8360;BME280;4217;48.762;11.428;2022-09-09T01:26:44;97272.78;;;17.63;74.92
8360;BME280;4217;48.762;11.428;2022-09-09T01:37:02;97269.06;;;17.77;75.59
8360;BME280;4217;48.762;11.428;2022-09-09T01:47:06;97251.75;;;17.93;75.08
8360;BME280;4217;48.762;11.428;2022-09-09T01:57:20;97256.19;;;17.84;75.31
8360;BME280;4217;48.762;11.428;2022-09-09T02:07:47;97253.38;;;17.62;75.08
8360;BME280;4217;48.762;11.428;2022-09-09T02:18:14;97258.06;;;17.51;74.77
8360;BME280;4217;48.762;11.428;2022-09-09T02:28:21;97252.88;;;17.41;74.98
8360;BME280;4217;48.762;11.428;2022-09-09T02:38:29;97238.19;;;17.30;75.10
8360;BME280;4217;48.762;11.428;2022-09-09T02:48:51;97235.13;;;17.23;75.04
8360;BME280;4217;48.762;11.428;2022-09-09T02:58:54;97236.56;;;17.16;75.33
8360;BME280;4217;48.762;11.428;2022-09-09T03:08:58;97235.69;;;17.20;75.40
8360;BME280;4217;48.762;11.428;2022-09-09T03:19:03;97237.22;;;17.26;75.68
8360;BME280;4217;48.762;11.428;2022-09-09T03:29:05;97246.88;;;17.36;75.57
8360;BME280;4217;48.762;11.428;2022-09-09T03:39:08;97244.41;;;17.39;75.26
8360;BME280;4217;48.762;11.428;2022-09-09T03:49:11;97252.38;;;17.26;75.48
8360;BME280;4217;48.762;11.428;2022-09-09T03:59:12;97244.66;;;17.57;75.57
8360;BME280;4217;48.762;11.428;2022-09-09T04:09:16;97246.09;;;17.68;75.45
8360;BME280;4217;48.762;11.428;2022-09-09T04:19:17;97236.06;;;17.65;74.99
8360;BME280;4217;48.762;11.428;2022-09-09T04:29:19;97236.34;;;17.63;75.08
8360;BME280;4217;48.762;11.428;2022-09-09T04:39:21;97235.03;;;17.28;75.10
8360;BME280;4217;48.762;11.428;2022-09-09T04:49:23;97227.44;;;17.22;75.03
8360;BME280;4217;48.762;11.428;2022-09-09T04:59:25;97244.31;;;17.31;74.66
8360;BME280;4217;48.762;11.428;2022-09-09T05:09:30;97257.69;;;17.58;74.71
8360;BME280;4217;48.762;11.428;2022-09-09T05:19:33;97240.97;;;18.53;73.68
8360;BME280;4217;48.762;11.428;2022-09-09T05:29:35;97261.22;;;19.26;72.66
8360;BME280;4217;48.762;11.428;2022-09-09T05:39:39;97263.53;;;20.03;71.35
8360;BME280;4217;48.762;11.428;2022-09-09T05:49:41;97277.84;;;19.68;70.30
8360;BME280;4217;48.762;11.428;2022-09-09T05:59:44;97248.50;;;19.76;68.83
8360;BME280;4217;48.762;11.428;2022-09-09T06:09:46;97260.72;;;20.39;67.07
8360;BME280;4217;48.762;11.428;2022-09-09T06:19:48;97279.56;;;21.17;64.89
8360;BME280;4217;48.762;11.428;2022-09-09T06:29:50;97320.06;;;20.67;64.31
8360;BME280;4217;48.762;11.428;2022-09-09T06:39:51;97331.81;;;20.26;64.82
8360;BME280;4217;48.762;11.428;2022-09-09T06:49:53;97329.09;;;20.18;65.00
8360;BME280;4217;48.762;11.428;2022-09-09T06:59:55;97324.47;;;20.01;65.04
8360;BME280;4217;48.762;11.428;2022-09-09T07:09:57;97328.84;;;20.28;64.98
8360;BME280;4217;48.762;11.428;2022-09-09T07:19:59;97323.09;;;20.35;65.15
8360;BME280;4217;48.762;11.428;2022-09-09T07:30:01;97316.19;;;20.42;64.76
8360;BME280;4217;48.762;11.428;2022-09-09T07:40:06;97318.19;;;20.85;64.59
8360;BME280;4217;48.762;11.428;2022-09-09T07:50:09;97325.44;;;22.05;62.79
8360;BME280;4217;48.762;11.428;2022-09-09T08:00:13;97309.81;;;28.43;49.13
8360;BME280;4217;48.762;11.428;2022-09-09T08:10:20;97334.78;;;30.97;40.30
8360;BME280;4217;48.762;11.428;2022-09-09T08:20:23;97354.25;;;29.18;42.96
8360;BME280;4217;48.762;11.428;2022-09-09T08:30:25;97351.94;;;34.75;33.48
8360;BME280;4217;48.762;11.428;2022-09-09T08:40:29;97336.94;;;37.75;28.68
8360;BME280;4217;48.762;11.428;2022-09-09T08:50:38;97327.28;;;35.24;30.07
8360;BME280;4217;48.762;11.428;2022-09-09T09:10:58;97334.94;;;32.48;33.94
8360;BME280;4217;48.762;11.428;2022-09-09T09:21:04;97324.81;;;32.20;34.63
8360;BME280;4217;48.762;11.428;2022-09-09T09:31:13;97316.75;;;38.99;25.64
8360;BME280;4217;48.762;11.428;2022-09-09T09:41:29;97291.75;;;46.00;18.57
8360;BME280;4217;48.762;11.428;2022-09-09T09:51:32;97282.00;;;47.06;15.97
8360;BME280;4217;48.762;11.428;2022-09-09T10:01:35;97280.00;;;46.46;15.47
8360;BME280;4217;48.762;11.428;2022-09-09T10:11:48;97271.19;;;42.51;17.85
8360;BME280;4217;48.762;11.428;2022-09-09T10:53:50;97259.16;;;44.44;16.59
8360;BME280;4217;48.762;11.428;2022-09-09T11:03:57;97253.38;;;44.33;16.55
8360;BME280;4217;48.762;11.428;2022-09-09T11:14:21;97246.75;;;37.58;22.61
8360;BME280;4217;48.762;11.428;2022-09-09T11:24:31;97251.13;;;36.06;24.30
8360;BME280;4217;48.762;11.428;2022-09-09T11:34:56;97240.44;;;34.60;26.30
8360;BME280;4217;48.762;11.428;2022-09-09T11:45:21;97241.41;;;33.25;28.79
8360;BME280;4217;48.762;11.428;2022-09-09T11:55:32;97252.81;;;31.71;31.45
8360;BME280;4217;48.762;11.428;2022-09-09T12:05:45;97241.56;;;31.90;31.65
8360;BME280;4217;48.762;11.428;2022-09-09T12:15:54;97245.88;;;32.02;31.85
8360;BME280;4217;48.762;11.428;2022-09-09T12:25:59;97234.19;;;32.37;30.63
8360;BME280;4217;48.762;11.428;2022-09-09T12:36:03;97224.03;;;30.62;33.61
8360;BME280;4217;48.762;11.428;2022-09-09T12:46:08;97212.38;;;29.63;34.83
8360;BME280;4217;48.762;11.428;2022-09-09T12:56:21;97203.94;;;29.75;35.46
8360;BME280;4217;48.762;11.428;2022-09-09T13:06:28;97200.38;;;30.66;33.92
8360;BME280;4217;48.762;11.428;2022-09-09T13:16:35;97194.03;;;31.10;33.34
8360;BME280;4217;48.762;11.428;2022-09-09T13:26:43;97168.22;;;30.65;32.74
8360;BME280;4217;48.762;11.428;2022-09-09T13:36:47;97170.28;;;31.00;33.34
8360;BME280;4217;48.762;11.428;2022-09-09T13:47:17;97132.81;;;31.83;30.83
8360;BME280;4217;48.762;11.428;2022-09-09T13:57:24;97131.56;;;31.45;30.87
8360;BME280;4217;48.762;11.428;2022-09-09T14:07:26;97110.66;;;31.60;31.12
8360;BME280;4217;48.762;11.428;2022-09-09T14:17:28;97122.66;;;31.41;30.75
8360;BME280;4217;48.762;11.428;2022-09-09T14:27:32;97138.47;;;30.17;32.80
8360;BME280;4217;48.762;11.428;2022-09-09T14:37:34;97146.81;;;28.20;36.78
8360;BME280;4217;48.762;11.428;2022-09-09T14:47:36;97145.78;;;27.14;38.65
8360;BME280;4217;48.762;11.428;2022-09-09T14:57:37;97163.72;;;26.49;40.31
8360;BME280;4217;48.762;11.428;2022-09-09T15:07:40;97163.25;;;26.28;41.36
8360;BME280;4217;48.762;11.428;2022-09-09T15:17:41;97160.88;;;26.42;41.37
8360;BME280;4217;48.762;11.428;2022-09-09T15:27:43;97117.34;;;26.98;42.00
8360;BME280;4217;48.762;11.428;2022-09-09T15:37:45;97095.97;;;28.06;38.48
8360;BME280;4217;48.762;11.428;2022-09-09T15:47:47;97112.03;;;27.69;38.16
8360;BME280;4217;48.762;11.428;2022-09-09T15:57:48;97130.78;;;26.78;38.65
8360;BME280;4217;48.762;11.428;2022-09-09T16:07:51;97148.13;;;26.58;38.05
8360;BME280;4217;48.762;11.428;2022-09-09T16:17:53;97146.97;;;26.40;37.36
8360;BME280;4217;48.762;11.428;2022-09-09T16:27:55;97167.41;;;25.31;36.91
8360;BME280;4217;48.762;11.428;2022-09-09T16:37:57;97175.91;;;24.89;38.30
8360;BME280;4217;48.762;11.428;2022-09-09T16:47:59;97163.78;;;24.83;37.68
8360;BME280;4217;48.762;11.428;2022-09-09T16:58:01;97160.50;;;24.62;38.35
8360;BME280;4217;48.762;11.428;2022-09-09T17:08:03;97232.44;;;23.47;45.98
8360;BME280;4217;48.762;11.428;2022-09-09T17:18:06;97212.69;;;22.77;49.83
8360;BME280;4217;48.762;11.428;2022-09-09T17:28:08;97214.44;;;22.73;50.43
8360;BME280;4217;48.762;11.428;2022-09-09T17:38:10;97213.50;;;22.69;51.89
8360;BME280;4217;48.762;11.428;2022-09-09T17:48:13;97226.38;;;22.25;54.47
8360;BME280;4217;48.762;11.428;2022-09-09T17:58:14;97225.25;;;21.88;57.10
8360;BME280;4217;48.762;11.428;2022-09-09T18:08:17;97231.06;;;21.44;58.60
8360;BME280;4217;48.762;11.428;2022-09-09T18:18:18;97239.91;;;20.93;59.71
8360;BME280;4217;48.762;11.428;2022-09-09T18:28:20;97253.56;;;20.65;60.64
8360;BME280;4217;48.762;11.428;2022-09-09T18:38:25;97277.84;;;20.38;62.59
8360;BME280;4217;48.762;11.428;2022-09-09T18:48:26;97287.31;;;20.22;62.87
8360;BME280;4217;48.762;11.428;2022-09-09T18:58:29;97313.09;;;20.18;63.22
8360;BME280;4217;48.762;11.428;2022-09-09T19:08:36;97323.63;;;20.23;62.67
8360;BME280;4217;48.762;11.428;2022-09-09T19:18:39;97333.75;;;20.04;62.86
8360;BME280;4217;48.762;11.428;2022-09-09T19:28:43;97345.44;;;20.16;63.47
8360;BME280;4217;48.762;11.428;2022-09-09T19:38:47;97346.69;;;20.41;63.08
8360;BME280;4217;48.762;11.428;2022-09-09T19:48:48;97345.91;;;20.49;62.99
8360;BME280;4217;48.762;11.428;2022-09-09T19:58:51;97334.22;;;20.37;64.16
8360;BME280;4217;48.762;11.428;2022-09-09T20:08:55;97357.19;;;20.38;64.41
8360;BME280;4217;48.762;11.428;2022-09-09T20:18:59;97352.25;;;20.31;64.74
8360;BME280;4217;48.762;11.428;2022-09-09T20:29:04;97347.75;;;20.09;64.80
8360;BME280;4217;48.762;11.428;2022-09-09T20:39:12;97361.50;;;19.72;65.58
8360;BME280;4217;48.762;11.428;2022-09-09T20:49:17;97363.56;;;19.39;66.28
8360;BME280;4217;48.762;11.428;2022-09-09T20:59:21;97374.81;;;19.14;65.96
8360;BME280;4217;48.762;11.428;2022-09-09T21:09:23;97371.59;;;18.89;66.04
8360;BME280;4217;48.762;11.428;2022-09-09T21:19:25;97373.97;;;18.77;66.11
8360;BME280;4217;48.762;11.428;2022-09-09T21:29:26;97378.38;;;18.54;66.97
8360;BME280;4217;48.762;11.428;2022-09-09T21:39:28;97385.03;;;18.57;67.91
8360;BME280;4217;48.762;11.428;2022-09-09T21:49:29;97376.13;;;18.61;67.93
8360;BME280;4217;48.762;11.428;2022-09-09T21:59:31;97383.91;;;18.58;67.96
8360;BME280;4217;48.762;11.428;2022-09-09T22:09:36;97413.88;;;18.50;68.92
8360;BME280;4217;48.762;11.428;2022-09-09T22:19:38;97403.97;;;18.69;68.12
8360;BME280;4217;48.762;11.428;2022-09-09T22:29:41;97416.66;;;18.58;68.39
8360;BME280;4217;48.762;11.428;2022-09-09T22:39:42;97400.69;;;18.72;68.13
8360;BME280;4217;48.762;11.428;2022-09-09T22:49:44;97408.78;;;18.81;68.14
8360;BME280;4217;48.762;11.428;2022-09-09T22:59:46;97422.00;;;18.72;68.17
8360;BME280;4217;48.762;11.428;2022-09-09T23:09:48;97404.75;;;18.56;68.09
8360;BME280;4217;48.762;11.428;2022-09-09T23:19:50;97403.88;;;18.28;68.46
8360;BME280;4217;48.762;11.428;2022-09-09T23:29:56;97403.84;;;18.14;67.74
8360;BME280;4217;48.762;11.428;2022-09-09T23:39:58;97411.25;;;18.17;67.33
8360;BME280;4217;48.762;11.428;2022-09-09T23:50:00;97412.31;;;18.03;67.26
